createdAt,value
2022-12-03T00:02:08.882Z,26.50
2022-12-03T00:04:36.042Z,26.02
2022-12-03T00:07:02.856Z,26.00
2022-12-03T00:09:30.125Z,24.33
2022-12-03T00:11:56.968Z,22.48
2022-12-03T00:14:24.134Z,24.58
2022-12-03T00:16:51.105Z,23.20
2022-12-03T00:19:17.921Z,22.08
2022-12-03T00:21:44.716Z,21.55
2022-12-03T00:24:11.673Z,20.48
2022-12-03T00:26:38.487Z,21.75
2022-12-03T00:29:05.419Z,21.88
2022-12-03T00:31:32.333Z,21.30
2022-12-03T00:33:59.332Z,20.15
2022-12-03T00:36:26.146Z,20.27
2022-12-03T00:38:54.153Z,20.08
2022-12-03T00:41:21.092Z,20.17
2022-12-03T00:43:47.957Z,18.95
2022-12-03T00:46:19.850Z,18.73
2022-12-03T00:48:48.255Z,18.40
2022-12-03T00:51:15.139Z,19.77
2022-12-03T00:53:41.973Z,19.65
2022-12-03T00:56:09.181Z,18.75
2022-12-03T00:58:36.351Z,19.48
2022-12-03T01:01:03.272Z,19.83
2022-12-03T01:03:30.156Z,18.45
2022-12-03T01:05:57.149Z,18.83
2022-12-03T01:08:24.242Z,20.85
2022-12-03T01:10:51.064Z,20.40
2022-12-03T01:13:17.932Z,18.58
2022-12-03T01:15:44.772Z,20.58
2022-12-03T01:18:11.827Z,18.42
2022-12-03T01:20:38.829Z,18.23
2022-12-03T01:23:06.059Z,18.73
2022-12-03T01:25:33.033Z,18.25
2022-12-03T01:27:59.978Z,18.83
2022-12-03T01:30:26.831Z,18.30
2022-12-03T01:32:53.740Z,18.40
2022-12-03T01:35:20.636Z,19.33
2022-12-03T01:37:47.515Z,18.52
2022-12-03T01:40:17.945Z,16.73
2022-12-03T01:42:45.017Z,18.52
2022-12-03T01:45:21.617Z,17.67
2022-12-03T01:47:48.728Z,17.55
2022-12-03T01:50:24.308Z,17.75
2022-12-03T01:52:52.277Z,18.38
2022-12-03T01:55:23.748Z,16.77
2022-12-03T01:57:53.596Z,19.10
2022-12-03T02:00:23.536Z,18.02
2022-12-03T02:02:57.765Z,17.65
2022-12-03T02:05:30.759Z,16.88
2022-12-03T02:07:58.410Z,18.73
2022-12-03T02:10:29.994Z,18.15
2022-12-03T02:13:03.565Z,19.13
2022-12-03T02:15:30.871Z,17.67
2022-12-03T02:17:57.791Z,19.33
2022-12-03T02:20:24.831Z,19.15
2022-12-03T02:23:17.351Z,17.30
2022-12-03T02:25:44.350Z,18.48
2022-12-03T02:28:11.356Z,18.80
2022-12-03T02:30:38.235Z,18.58
2022-12-03T02:33:05.198Z,18.92
2022-12-03T02:35:34.994Z,18.30
2022-12-03T02:38:21.217Z,17.63
2022-12-03T02:40:51.448Z,19.10
2022-12-03T02:43:20.420Z,17.80
2022-12-03T02:45:51.469Z,18.90
2022-12-03T02:48:23.385Z,18.42
2022-12-03T02:51:00.730Z,18.80
2022-12-03T02:53:46.532Z,18.67
2022-12-03T02:56:18.485Z,19.52
2022-12-03T02:58:48.378Z,18.63
2022-12-03T03:01:15.846Z,17.92
2022-12-03T03:03:44.488Z,19.13
2022-12-03T03:06:11.978Z,19.25
2022-12-03T03:08:41.524Z,19.55
2022-12-03T03:11:08.545Z,18.98
2022-12-03T03:13:36.673Z,19.20
2022-12-03T03:16:05.606Z,19.40
2022-12-03T03:18:33.665Z,19.70
2022-12-03T03:21:00.799Z,19.83
2022-12-03T03:23:28.077Z,19.88
2022-12-03T03:26:13.366Z,20.02
2022-12-03T03:28:44.771Z,18.02
2022-12-03T03:31:14.763Z,19.70
2022-12-03T03:33:44.619Z,19.58
2022-12-03T03:36:12.715Z,20.13
2022-12-03T03:38:41.457Z,19.08
2022-12-03T03:41:09.900Z,20.17
2022-12-03T03:43:38.824Z,19.08
2022-12-03T03:46:07.361Z,20.17
2022-12-03T03:48:35.359Z,19.23
2022-12-03T03:51:04.189Z,21.50
2022-12-03T03:53:31.415Z,21.83
2022-12-03T03:55:58.382Z,20.35
2022-12-03T03:58:25.179Z,21.35
2022-12-03T04:00:52.293Z,21.20
2022-12-03T04:03:19.405Z,20.38
2022-12-03T04:05:46.705Z,19.42
2022-12-03T04:08:13.661Z,20.42
2022-12-03T04:10:59.210Z,21.80
2022-12-03T04:13:26.304Z,21.52
2022-12-03T04:15:53.105Z,22.55
2022-12-03T04:18:38.425Z,20.10
2022-12-03T04:21:23.739Z,20.88
2022-12-03T04:23:50.676Z,20.00
2022-12-03T04:26:35.962Z,24.10
2022-12-03T04:29:03.181Z,20.83
2022-12-03T04:31:48.551Z,22.13
2022-12-03T04:34:34.089Z,21.85
2022-12-03T04:37:01.099Z,22.38
2022-12-03T04:39:27.943Z,23.50
2022-12-03T04:41:54.828Z,23.73
2022-12-03T04:44:33.676Z,23.42
2022-12-03T04:47:05.852Z,24.13
2022-12-03T04:49:33.458Z,22.42
2022-12-03T04:52:00.647Z,22.42
2022-12-03T04:54:28.457Z,22.95
2022-12-03T04:56:55.382Z,23.40
2022-12-03T04:59:22.390Z,22.55
2022-12-03T05:01:49.356Z,23.48
2022-12-03T05:04:16.823Z,23.50
2022-12-03T05:06:44.295Z,24.15
2022-12-03T05:09:11.806Z,24.17
2022-12-03T05:11:39.135Z,23.05
2022-12-03T05:14:06.518Z,23.27
2022-12-03T05:16:33.575Z,22.85
2022-12-03T05:19:01.059Z,24.58
2022-12-03T05:21:28.132Z,23.65
2022-12-03T05:23:55.394Z,22.88
2022-12-03T05:26:22.268Z,23.88
2022-12-03T05:28:49.131Z,24.83
2022-12-03T05:31:16.138Z,23.15
2022-12-03T05:33:44.569Z,23.88
2022-12-03T05:36:11.695Z,23.77
2022-12-03T05:38:38.872Z,23.70
2022-12-03T05:41:25.981Z,23.60
2022-12-03T05:43:52.962Z,25.42
2022-12-03T05:46:19.901Z,24.13
2022-12-03T05:48:46.846Z,24.90
2022-12-03T05:51:13.778Z,24.05
2022-12-03T05:53:40.690Z,24.50
2022-12-03T05:56:07.805Z,23.83
2022-12-03T05:58:34.845Z,24.00
2022-12-03T06:01:01.690Z,23.90
2022-12-03T06:03:28.596Z,23.55
2022-12-03T06:05:55.750Z,23.92
2022-12-03T06:08:22.724Z,23.38
2022-12-03T06:10:49.613Z,24.55
2022-12-03T06:13:16.600Z,23.25
2022-12-03T06:15:44.181Z,24.38
2022-12-03T06:18:11.579Z,24.05
2022-12-03T06:20:38.401Z,23.50
2022-12-03T06:23:05.271Z,25.13
2022-12-03T06:25:32.091Z,25.10
2022-12-03T06:27:58.949Z,24.88
2022-12-03T06:30:25.706Z,24.75
2022-12-03T06:32:52.737Z,23.77
2022-12-03T06:35:19.603Z,25.40
2022-12-03T06:37:49.116Z,24.55
2022-12-03T06:40:16.841Z,25.15
2022-12-03T06:42:43.926Z,24.63
2022-12-03T06:45:11.872Z,25.23
2022-12-03T06:47:38.780Z,24.38
2022-12-03T06:50:07.397Z,25.30
2022-12-03T06:52:34.354Z,25.45
2022-12-03T06:55:01.352Z,26.15
2022-12-03T06:57:28.257Z,24.75
2022-12-03T06:59:55.351Z,24.85
2022-12-03T07:02:22.420Z,26.33
2022-12-03T07:04:49.287Z,24.20
2022-12-03T07:07:16.127Z,26.42
2022-12-03T07:09:43.376Z,26.17
2022-12-03T07:12:10.420Z,25.27
2022-12-03T07:14:37.851Z,25.83
2022-12-03T07:17:04.644Z,24.98
2022-12-03T07:19:32.956Z,24.55
2022-12-03T07:22:00.359Z,26.27
2022-12-03T07:24:27.369Z,24.08
2022-12-03T07:26:54.504Z,26.60
2022-12-03T07:29:21.420Z,24.33
2022-12-03T07:31:48.349Z,26.52
2022-12-03T07:34:15.297Z,23.80
2022-12-03T07:36:42.067Z,26.55
2022-12-03T07:39:09.271Z,26.83
2022-12-03T07:41:36.240Z,24.98
2022-12-03T07:44:03.077Z,25.95
2022-12-03T07:46:29.954Z,27.58
2022-12-03T07:48:56.951Z,26.08
2022-12-03T07:51:28.854Z,26.10
2022-12-03T07:53:58.788Z,27.02
2022-12-03T07:56:25.551Z,26.00
2022-12-03T07:58:52.394Z,26.00
2022-12-03T08:01:19.291Z,27.05
2022-12-03T08:03:46.267Z,26.27
2022-12-03T08:06:13.113Z,26.13
2022-12-03T08:08:40.379Z,27.20
2022-12-03T08:11:09.988Z,25.67
2022-12-03T08:13:36.856Z,24.95
2022-12-03T08:16:17.176Z,25.63
2022-12-03T08:18:45.081Z,26.88
2022-12-03T08:21:14.078Z,27.05
2022-12-03T08:23:41.405Z,27.25
2022-12-03T08:26:27.330Z,25.95
2022-12-03T08:28:54.357Z,25.83
2022-12-03T08:31:32.386Z,26.52
2022-12-03T08:34:14.119Z,27.27
2022-12-03T08:36:40.979Z,25.77
2022-12-03T08:39:31.290Z,27.92
2022-12-03T08:42:37.207Z,26.63
2022-12-03T08:45:33.122Z,27.88
2022-12-03T08:48:02.659Z,28.63
2022-12-03T08:50:42.031Z,28.70
2022-12-03T08:53:20.851Z,27.83
2022-12-03T08:55:52.827Z,29.58
2022-12-03T08:58:48.950Z,27.52
2022-12-03T09:01:27.337Z,31.40
2022-12-03T09:03:55.855Z,34.80
2022-12-03T09:06:23.235Z,27.88
2022-12-03T09:08:50.327Z,32.00
2022-12-03T09:11:17.320Z,28.05
2022-12-03T09:13:44.291Z,26.95
2022-12-03T09:16:11.118Z,26.60
2022-12-03T09:18:38.046Z,27.20
2022-12-03T09:21:05.130Z,25.83
2022-12-03T09:23:32.187Z,25.65
2022-12-03T09:25:59.098Z,25.48
2022-12-03T09:28:26.024Z,24.98
2022-12-03T09:30:52.836Z,26.23
2022-12-03T09:33:19.739Z,27.15
2022-12-03T09:35:46.545Z,24.92
2022-12-03T09:38:13.392Z,24.02
2022-12-03T09:40:40.890Z,24.25
2022-12-03T09:43:08.001Z,24.33
2022-12-03T09:45:34.902Z,25.00
2022-12-03T09:48:03.984Z,29.95
2022-12-03T09:50:31.929Z,29.63
2022-12-03T09:53:02.771Z,25.45
2022-12-03T09:55:30.357Z,23.38
2022-12-03T09:57:57.976Z,24.30
2022-12-03T10:00:28.244Z,23.65
2022-12-03T10:03:02.790Z,23.25
2022-12-03T10:05:30.173Z,23.97
2022-12-03T10:08:06.804Z,24.35
2022-12-03T10:10:34.750Z,22.98
2022-12-03T10:13:02.179Z,23.52
2022-12-03T10:15:29.368Z,21.27
2022-12-03T10:17:57.450Z,23.25
2022-12-03T10:20:25.970Z,23.95
2022-12-03T10:22:52.845Z,24.35
2022-12-03T10:25:22.440Z,25.58
2022-12-03T10:28:01.957Z,25.70
2022-12-03T10:30:29.811Z,24.80
2022-12-03T10:32:58.529Z,26.60
2022-12-03T10:35:45.698Z,24.85
2022-12-03T10:38:19.903Z,27.83
2022-12-03T10:40:46.860Z,25.33
2022-12-03T10:43:19.646Z,25.77
2022-12-03T10:45:47.537Z,25.52
2022-12-03T10:48:20.138Z,25.40
2022-12-03T10:51:10.144Z,25.48
2022-12-03T10:53:40.502Z,25.90
2022-12-03T10:56:14.955Z,26.17
2022-12-03T10:58:42.318Z,27.60
2022-12-03T11:01:21.685Z,26.45
2022-12-03T11:03:49.537Z,26.20
2022-12-03T11:06:20.004Z,23.52
2022-12-03T11:08:56.189Z,26.08
2022-12-03T11:11:30.330Z,25.90
2022-12-03T11:14:02.198Z,26.58
2022-12-03T11:16:40.907Z,24.90
2022-12-03T11:19:13.995Z,23.92
2022-12-03T11:22:05.664Z,24.70
2022-12-03T11:24:34.685Z,25.35
2022-12-03T11:27:01.468Z,25.20
2022-12-03T11:29:47.176Z,23.42
2022-12-03T11:32:39.314Z,23.52
2022-12-03T11:35:27.267Z,24.17
2022-12-03T11:37:54.352Z,25.10
2022-12-03T11:40:21.138Z,31.25
2022-12-03T11:42:48.940Z,39.50
2022-12-03T11:45:18.638Z,29.38
2022-12-03T11:48:14.925Z,28.15
2022-12-03T11:53:21.051Z,25.45
2022-12-03T11:56:04.218Z,27.10
2022-12-03T11:58:32.266Z,27.33
2022-12-03T12:01:03.450Z,27.40
2022-12-03T12:03:34.545Z,25.52
2022-12-03T12:06:11.614Z,26.45
2022-12-03T12:08:41.151Z,26.27
2022-12-03T12:11:29.176Z,27.95
2022-12-03T12:13:58.679Z,26.80
2022-12-03T12:16:37.931Z,26.83
2022-12-03T12:19:27.838Z,25.67
2022-12-03T12:21:54.866Z,26.55
2022-12-03T12:24:31.074Z,26.63
2022-12-03T12:27:00.493Z,24.73
2022-12-03T12:29:27.722Z,25.65
2022-12-03T12:32:09.680Z,24.13
2022-12-03T12:34:48.143Z,25.38
2022-12-03T12:37:27.361Z,26.55
2022-12-03T12:39:56.997Z,25.48
2022-12-03T12:42:39.012Z,24.90
2022-12-03T12:45:27.518Z,23.85
2022-12-03T12:48:13.193Z,24.20
2022-12-03T12:50:44.928Z,23.58
2022-12-03T12:53:25.261Z,24.00
2022-12-03T12:55:59.238Z,24.98
2022-12-03T12:58:30.156Z,25.70
2022-12-03T13:01:07.522Z,25.25
2022-12-03T13:03:38.943Z,23.02
2022-12-03T13:06:06.163Z,23.10
2022-12-03T13:08:39.254Z,24.25
2022-12-03T13:11:11.445Z,24.00
2022-12-03T13:13:44.040Z,23.88
2022-12-03T13:16:28.189Z,22.08
2022-12-03T13:19:00.041Z,24.80
2022-12-03T13:21:45.673Z,24.50
2022-12-03T13:24:39.055Z,23.05
2022-12-03T13:27:18.044Z,23.52
2022-12-03T13:29:46.947Z,24.13
2022-12-03T13:32:20.801Z,23.70
2022-12-03T13:34:50.411Z,24.90
2022-12-03T13:37:23.169Z,23.48
2022-12-03T13:39:53.397Z,23.52
2022-12-03T13:42:41.833Z,24.77
2022-12-03T13:45:14.933Z,24.10
2022-12-03T13:48:02.756Z,24.45
2022-12-03T13:50:46.172Z,25.52
2022-12-03T13:53:16.134Z,26.10
2022-12-03T13:55:48.418Z,26.25
2022-12-03T13:58:15.318Z,27.17
2022-12-03T14:00:42.637Z,26.05
2022-12-03T14:03:09.499Z,26.25
2022-12-03T14:05:36.330Z,26.48
2022-12-03T14:08:03.241Z,25.48
2022-12-03T14:10:30.542Z,26.75
2022-12-03T14:12:57.735Z,27.92
2022-12-03T14:15:27.605Z,27.95
2022-12-03T14:17:55.109Z,31.25
2022-12-03T14:20:22.162Z,32.13
2022-12-03T14:22:49.110Z,30.35
2022-12-03T14:25:16.027Z,29.17
2022-12-03T14:27:42.881Z,28.70
2022-12-03T14:30:10.205Z,29.77
2022-12-03T14:32:37.099Z,29.73
2022-12-03T14:35:09.725Z,30.48
2022-12-03T14:37:37.178Z,34.22
2022-12-03T14:40:04.468Z,35.33
2022-12-03T14:42:31.476Z,34.17
2022-12-03T14:44:58.381Z,32.47
2022-12-03T14:47:25.321Z,31.17
2022-12-03T14:49:52.919Z,31.88
2022-12-03T14:52:20.250Z,32.50
2022-12-03T14:54:47.118Z,32.65
2022-12-03T14:57:15.387Z,30.75
2022-12-03T14:59:44.616Z,30.02
2022-12-03T15:02:12.358Z,29.05
2022-12-03T15:04:40.488Z,30.83
2022-12-03T15:07:07.986Z,27.63
2022-12-03T15:09:34.894Z,30.30
2022-12-03T15:12:03.347Z,33.08
2022-12-03T15:14:30.195Z,32.85
2022-12-03T15:16:57.309Z,30.83
2022-12-03T15:19:24.247Z,35.28
2022-12-03T15:21:51.223Z,33.65
2022-12-03T15:24:18.016Z,31.77
2022-12-03T15:26:44.911Z,29.48
2022-12-03T15:29:12.181Z,31.98
2022-12-03T15:31:39.153Z,30.20
2022-12-03T15:34:05.945Z,28.70
2022-12-03T15:36:32.801Z,31.67
2022-12-03T15:38:59.661Z,29.42
2022-12-03T15:41:29.635Z,29.52
2022-12-03T15:43:58.865Z,28.85
2022-12-03T15:46:27.599Z,28.13
2022-12-03T15:48:55.764Z,29.67
2022-12-03T15:51:22.965Z,31.15
2022-12-03T15:53:50.002Z,38.38
2022-12-03T15:56:16.802Z,30.50
2022-12-03T15:58:43.731Z,33.65
2022-12-03T16:01:11.015Z,31.48
2022-12-03T16:03:37.960Z,31.27
2022-12-03T16:06:05.111Z,31.15
2022-12-03T16:08:31.978Z,30.35
2022-12-03T16:10:58.780Z,31.17
2022-12-03T16:13:25.700Z,31.38
2022-12-03T16:15:52.693Z,32.65
2022-12-03T16:18:19.577Z,31.00
2022-12-03T16:20:46.623Z,31.73
2022-12-03T16:23:13.597Z,30.45
2022-12-03T16:25:40.424Z,33.95
2022-12-03T16:28:07.261Z,32.45
2022-12-03T16:30:34.185Z,33.85
2022-12-03T16:33:01.172Z,33.22
2022-12-03T16:35:28.230Z,32.97
2022-12-03T16:37:55.157Z,31.92
2022-12-03T16:40:21.961Z,31.30
2022-12-03T16:42:48.866Z,32.97
2022-12-03T16:45:21.543Z,34.88
2022-12-03T16:47:49.936Z,34.20
2022-12-03T16:50:24.429Z,33.35
2022-12-03T16:52:56.121Z,33.55
2022-12-03T16:55:22.959Z,33.70
2022-12-03T16:57:49.834Z,34.33
2022-12-03T17:00:17.141Z,33.10
2022-12-03T17:02:44.159Z,33.22
2022-12-03T17:05:11.010Z,35.75
2022-12-03T17:07:38.004Z,34.30
2022-12-03T17:10:06.136Z,33.75
2022-12-03T17:12:54.137Z,35.58
2022-12-03T17:15:19.886Z,38.80
2022-12-03T17:17:46.728Z,36.42
2022-12-03T17:20:14.760Z,35.22
2022-12-03T17:22:42.026Z,34.35
2022-12-03T17:25:09.689Z,30.67
2022-12-03T17:27:42.024Z,32.85
2022-12-03T17:30:13.242Z,29.15
2022-12-03T17:32:40.409Z,29.52
2022-12-03T17:35:08.103Z,29.38
2022-12-03T17:37:35.428Z,30.33
2022-12-03T17:40:04.308Z,34.67
2022-12-03T17:42:31.145Z,35.45
2022-12-03T17:44:58.078Z,29.17
2022-12-03T17:47:25.037Z,27.38
2022-12-03T17:49:52.405Z,30.20
2022-12-03T17:52:19.624Z,29.27
2022-12-03T17:55:09.916Z,28.77
2022-12-03T17:57:33.537Z,28.65
2022-12-03T18:00:00.392Z,30.13
2022-12-03T18:02:27.312Z,30.08
2022-12-03T18:04:54.166Z,29.90
2022-12-03T18:07:21.094Z,31.05
2022-12-03T18:09:48.062Z,27.55
2022-12-03T18:12:14.913Z,27.95
2022-12-03T18:14:41.782Z,28.60
2022-12-03T18:17:08.727Z,29.25
2022-12-03T18:19:35.531Z,28.88
2022-12-03T18:22:02.411Z,29.48
2022-12-03T18:24:29.209Z,29.45
2022-12-03T18:26:56.153Z,28.58
2022-12-03T18:29:22.964Z,30.35
2022-12-03T18:31:49.866Z,27.38
2022-12-03T18:34:16.727Z,28.88
2022-12-03T18:36:43.747Z,27.35
2022-12-03T18:39:26.346Z,27.80
2022-12-03T18:41:53.861Z,30.25
2022-12-03T18:44:21.107Z,34.95
2022-12-03T18:46:55.572Z,30.48
2022-12-03T18:49:22.666Z,30.50
2022-12-03T18:51:53.270Z,30.35
2022-12-03T18:54:25.030Z,29.05
2022-12-03T18:56:51.962Z,28.85
2022-12-03T18:59:18.814Z,28.73
2022-12-03T19:01:45.737Z,28.90
2022-12-03T19:04:12.731Z,27.02
2022-12-03T19:06:40.320Z,28.67
2022-12-03T19:09:07.365Z,67.80
2022-12-03T19:11:34.471Z,45.28
2022-12-03T19:14:02.957Z,36.55
2022-12-03T19:16:29.938Z,28.88
2022-12-03T19:18:57.425Z,39.92
2022-12-03T19:21:25.193Z,33.00
2022-12-03T19:24:22.693Z,30.48
2022-12-03T19:26:40.281Z,30.73
2022-12-03T19:29:07.070Z,30.80
2022-12-03T19:31:33.996Z,28.35
2022-12-03T19:34:00.855Z,30.75
2022-12-03T19:36:30.511Z,30.48
2022-12-03T19:38:59.589Z,29.85
2022-12-03T19:41:28.408Z,28.60
2022-12-03T19:43:56.585Z,30.02
2022-12-03T19:46:25.351Z,30.17
2022-12-03T19:48:53.885Z,29.70
2022-12-03T19:51:34.056Z,29.30
2022-12-03T19:54:06.082Z,28.60
2022-12-03T19:56:33.536Z,29.25
2022-12-03T19:59:00.416Z,30.08
2022-12-03T20:01:29.958Z,28.90
2022-12-03T20:03:58.988Z,30.58
2022-12-03T20:06:28.788Z,32.58
2022-12-03T20:09:01.211Z,33.63
2022-12-03T20:11:31.144Z,33.45
2022-12-03T20:14:00.592Z,29.88
2022-12-03T20:16:28.251Z,32.78
2022-12-03T20:19:00.938Z,34.35
2022-12-03T20:21:32.528Z,35.40
2022-12-03T20:23:59.748Z,35.17
2022-12-03T20:26:27.680Z,39.28
2022-12-03T20:28:55.944Z,33.83
2022-12-03T20:31:26.481Z,32.88
2022-12-03T20:33:56.085Z,33.53
2022-12-03T20:36:23.336Z,33.90
2022-12-03T20:38:55.687Z,39.60
2022-12-03T20:41:23.199Z,32.83
2022-12-03T20:43:50.878Z,33.55
2022-12-03T20:46:20.705Z,37.75
2022-12-03T20:48:47.784Z,32.85
2022-12-03T20:51:17.637Z,32.22
2022-12-03T20:53:45.251Z,32.92
2022-12-03T20:56:20.122Z,33.03
2022-12-03T20:58:50.966Z,31.95
2022-12-03T21:01:21.202Z,30.55
2022-12-03T21:03:48.896Z,32.80
2022-12-03T21:06:16.466Z,33.80
2022-12-03T21:08:43.564Z,30.88
2022-12-03T21:11:16.834Z,29.48
2022-12-03T21:13:44.455Z,33.08
2022-12-03T21:16:14.487Z,31.75
2022-12-03T21:18:42.183Z,30.50
2022-12-03T21:21:11.183Z,31.10
2022-12-03T21:23:38.108Z,31.33
2022-12-03T21:26:13.964Z,30.50
2022-12-03T21:28:43.310Z,32.10
2022-12-03T21:31:13.423Z,31.15
2022-12-03T21:33:40.819Z,32.35
2022-12-03T21:36:08.387Z,29.85
2022-12-03T21:38:35.610Z,30.30
2022-12-03T21:41:02.995Z,32.53
2022-12-03T21:43:30.887Z,31.88
2022-12-03T21:45:57.845Z,31.80
2022-12-03T21:48:24.727Z,32.33
2022-12-03T21:51:04.014Z,30.25
2022-12-03T21:53:32.496Z,32.33
2022-12-03T21:56:00.332Z,31.13
2022-12-03T21:58:27.214Z,32.40
2022-12-03T22:00:54.081Z,31.30
2022-12-03T22:03:21.084Z,33.17
2022-12-03T22:05:50.227Z,34.40
2022-12-03T22:08:17.488Z,32.17
2022-12-03T22:10:44.392Z,32.03
2022-12-03T22:13:11.458Z,33.97
2022-12-03T22:15:39.877Z,33.78
2022-12-03T22:18:06.861Z,33.28
2022-12-03T22:20:33.746Z,32.15
2022-12-03T22:23:00.576Z,33.10
2022-12-03T22:25:27.457Z,33.97
2022-12-03T22:27:54.469Z,32.70
2022-12-03T22:30:21.275Z,34.92
2022-12-03T22:32:48.167Z,33.15
2022-12-03T22:35:15.111Z,33.20
2022-12-03T22:37:42.005Z,33.55
2022-12-03T22:40:09.116Z,31.85
2022-12-03T22:42:36.042Z,34.85
2022-12-03T22:45:02.875Z,33.53
2022-12-03T22:47:29.896Z,32.55
2022-12-03T22:49:56.929Z,32.85
2022-12-03T22:52:23.983Z,33.08
2022-12-03T22:54:50.822Z,32.72
2022-12-03T22:57:17.793Z,32.60
2022-12-03T22:59:44.593Z,33.60
2022-12-03T23:02:11.480Z,32.80
2022-12-03T23:04:38.526Z,35.75
2022-12-03T23:07:08.076Z,35.40
2022-12-03T23:09:34.993Z,34.10
2022-12-03T23:12:01.935Z,36.33
2022-12-03T23:14:28.746Z,35.15
2022-12-03T23:16:55.546Z,35.55
2022-12-03T23:19:22.675Z,35.40
2022-12-03T23:21:49.471Z,36.08
2022-12-03T23:24:16.306Z,35.85
2022-12-03T23:26:43.240Z,35.30
2022-12-03T23:29:10.197Z,35.13
2022-12-03T23:31:37.206Z,35.22
2022-12-03T23:34:04.463Z,36.53
2022-12-03T23:36:33.071Z,34.47
2022-12-03T23:38:59.999Z,35.83
2022-12-03T23:41:27.297Z,36.22
2022-12-03T23:43:54.599Z,35.25
2022-12-03T23:46:23.991Z,34.75
2022-12-03T23:48:52.226Z,34.83
2022-12-03T23:51:23.770Z,36.15
2022-12-03T23:53:52.880Z,34.13
2022-12-03T23:56:23.510Z,35.25
2022-12-03T23:58:50.910Z,35.35
